createdAt,value
2023-03-25T00:01:17.664Z,1.98
2023-03-25T00:03:50.877Z,2.50
2023-03-25T00:06:19.975Z,2.45
2023-03-25T00:08:48.225Z,3.05
2023-03-25T00:11:16.553Z,2.53
2023-03-25T00:13:44.759Z,2.75
2023-03-25T00:16:12.913Z,2.10
2023-03-25T00:18:41.409Z,1.73
2023-03-25T00:21:12.444Z,1.60
2023-03-25T00:23:41.736Z,2.10
2023-03-25T00:26:10.408Z,2.42
2023-03-25T00:28:39.245Z,2.17
2023-03-25T00:31:14.916Z,2.20
2023-03-25T00:33:43.098Z,2.30
2023-03-25T00:36:13.721Z,2.10
2023-03-25T00:38:43.434Z,2.42
2023-03-25T00:41:17.742Z,2.28
2023-03-25T00:43:46.181Z,2.63
2023-03-25T00:46:14.402Z,2.40
2023-03-25T00:48:43.783Z,2.38
2023-03-25T00:51:14.803Z,2.65
2023-03-25T00:53:42.935Z,2.20
2023-03-25T00:56:12.382Z,2.42
2023-03-25T00:58:40.877Z,2.10
2023-03-25T01:01:15.615Z,3.28
2023-03-25T01:03:44.954Z,2.55
2023-03-25T01:06:15.240Z,2.75
2023-03-25T01:08:44.419Z,2.40
2023-03-25T01:11:23.306Z,2.85
2023-03-25T01:13:51.724Z,2.45
2023-03-25T01:16:19.955Z,2.53
2023-03-25T01:18:48.503Z,2.63
2023-03-25T01:21:17.242Z,2.30
2023-03-25T01:23:45.685Z,2.30
2023-03-25T01:26:13.986Z,2.35
2023-03-25T01:28:43.454Z,2.17
2023-03-25T01:31:14.684Z,2.70
2023-03-25T01:33:43.807Z,3.20
2023-03-25T01:36:13.105Z,3.05
2023-03-25T01:38:42.581Z,3.22
2023-03-25T01:41:10.840Z,2.30
2023-03-25T01:43:39.433Z,2.85
2023-03-25T01:46:14.384Z,2.53
2023-03-25T01:48:44.679Z,2.63
2023-03-25T01:51:21.921Z,2.33
2023-03-25T01:53:53.211Z,2.40
2023-03-25T01:56:31.918Z,2.63
2023-03-25T01:59:08.809Z,3.05
2023-03-25T02:01:37.001Z,2.90
2023-03-25T02:04:12.140Z,2.90
2023-03-25T02:06:46.923Z,3.42
2023-03-25T02:09:17.807Z,2.60
2023-03-25T02:11:46.369Z,3.00
2023-03-25T02:14:19.476Z,2.65
2023-03-25T02:17:09.386Z,3.08
2023-03-25T02:19:51.350Z,3.38
2023-03-25T02:22:43.837Z,3.17
2023-03-25T02:25:35.576Z,2.88
2023-03-25T02:28:25.875Z,3.10
2023-03-25T02:31:03.274Z,2.50
2023-03-25T02:33:49.610Z,2.92
2023-03-25T02:36:33.503Z,2.97
2023-03-25T02:39:09.117Z,3.35
2023-03-25T02:42:01.613Z,2.78
2023-03-25T02:45:04.844Z,3.30
2023-03-25T02:47:38.636Z,3.42
2023-03-25T02:50:24.906Z,3.13
2023-03-25T02:52:58.456Z,3.40
2023-03-25T02:55:30.651Z,3.13
2023-03-25T02:58:01.739Z,3.30
2023-03-25T03:00:31.429Z,3.58
2023-03-25T03:03:02.106Z,3.90
2023-03-25T03:05:50.495Z,3.45
2023-03-25T03:08:40.007Z,3.45
2023-03-25T03:11:36.949Z,3.22
2023-03-25T03:14:17.319Z,3.15
2023-03-25T03:17:10.310Z,3.03
2023-03-25T03:19:50.817Z,3.63
2023-03-25T03:22:21.703Z,3.25
2023-03-25T03:25:10.659Z,3.35
2023-03-25T03:28:16.438Z,3.15
2023-03-25T03:30:54.439Z,2.95
2023-03-25T03:33:33.734Z,3.10
2023-03-25T03:36:09.323Z,3.10
2023-03-25T03:39:10.957Z,3.40
2023-03-25T03:41:43.807Z,3.08
2023-03-25T03:44:16.326Z,2.90
2023-03-25T03:47:00.918Z,2.97
2023-03-25T03:49:39.392Z,3.45
2023-03-25T03:52:19.404Z,3.85
2023-03-25T03:55:10.633Z,3.38
2023-03-25T03:57:52.579Z,3.00
2023-03-25T04:00:50.085Z,3.40
2023-03-25T04:03:39.065Z,3.42
2023-03-25T04:06:38.668Z,5.30
2023-03-25T04:09:18.568Z,3.08
2023-03-25T04:11:54.558Z,3.25
2023-03-25T04:14:22.952Z,3.03
2023-03-25T04:16:53.174Z,3.95
2023-03-25T04:19:21.597Z,3.45
2023-03-25T04:21:49.809Z,3.50
2023-03-25T04:24:19.915Z,3.22
2023-03-25T04:26:49.823Z,3.00
2023-03-25T04:29:19.059Z,3.33
2023-03-25T04:31:50.552Z,2.67
2023-03-25T04:34:20.670Z,2.95
2023-03-25T04:36:50.413Z,3.20
2023-03-25T04:39:22.454Z,3.58
2023-03-25T04:41:53.784Z,3.30
2023-03-25T04:44:27.155Z,3.72
2023-03-25T04:49:26.776Z,3.50
2023-03-25T04:51:55.788Z,3.95
2023-03-25T04:54:24.142Z,4.55
2023-03-25T04:56:53.199Z,3.65
2023-03-25T04:59:22.948Z,3.72
2023-03-25T05:01:52.767Z,3.60
2023-03-25T05:04:24.839Z,4.10
2023-03-25T05:06:53.166Z,3.75
2023-03-25T05:09:24.694Z,4.25
2023-03-25T05:11:53.752Z,4.80
2023-03-25T05:14:22.427Z,4.15
2023-03-25T05:16:51.162Z,4.43
2023-03-25T05:19:21.069Z,4.93
2023-03-25T05:21:49.250Z,4.70
2023-03-25T05:24:17.494Z,4.20
2023-03-25T05:26:45.652Z,5.43
2023-03-25T05:29:15.575Z,5.10
2023-03-25T05:31:46.217Z,5.53
2023-03-25T05:34:17.081Z,4.88
2023-03-25T05:36:45.993Z,5.22
2023-03-25T05:39:14.384Z,5.70
2023-03-25T05:41:45.569Z,5.88
2023-03-25T05:44:15.474Z,5.10
2023-03-25T05:46:44.111Z,4.95
2023-03-25T05:49:12.217Z,5.88
2023-03-25T05:51:40.366Z,5.90
2023-03-25T05:54:11.279Z,4.90
2023-03-25T05:56:41.491Z,4.63
2023-03-25T05:59:10.509Z,5.03
2023-03-25T06:01:38.876Z,5.10
2023-03-25T06:04:10.087Z,5.40
2023-03-25T06:06:40.203Z,5.45
2023-03-25T06:09:08.378Z,4.65
2023-03-25T06:11:40.074Z,5.38
2023-03-25T06:14:12.410Z,3.85
2023-03-25T06:16:40.500Z,3.53
2023-03-25T06:19:09.559Z,4.10
2023-03-25T06:21:38.881Z,4.78
2023-03-25T06:24:07.418Z,4.63
2023-03-25T06:26:35.536Z,4.47
2023-03-25T06:29:06.529Z,4.55
2023-03-25T06:31:34.777Z,4.32
2023-03-25T06:34:03.129Z,4.40
2023-03-25T06:36:31.624Z,3.97
2023-03-25T06:38:59.902Z,4.00
2023-03-25T06:41:29.171Z,3.78
2023-03-25T06:44:24.446Z,3.70
2023-03-25T06:47:13.483Z,4.32
2023-03-25T06:49:45.833Z,3.90
2023-03-25T06:52:14.161Z,3.53
2023-03-25T06:54:45.381Z,3.33
2023-03-25T06:57:13.552Z,3.03
2023-03-25T06:59:41.800Z,3.40
2023-03-25T07:02:16.368Z,3.42
2023-03-25T07:04:44.578Z,3.60
2023-03-25T07:07:12.816Z,3.75
2023-03-25T07:09:41.013Z,3.53
2023-03-25T07:12:09.518Z,3.25
2023-03-25T07:14:37.757Z,3.15
2023-03-25T07:17:06.462Z,3.47
2023-03-25T07:19:34.610Z,4.03
2023-03-25T07:22:03.617Z,3.40
2023-03-25T07:24:31.948Z,3.50
2023-03-25T07:27:00.248Z,3.85
2023-03-25T07:29:30.534Z,3.38
2023-03-25T07:31:58.709Z,3.63
2023-03-25T07:34:26.893Z,3.53
2023-03-25T07:36:54.998Z,4.00
2023-03-25T07:39:25.304Z,4.40
2023-03-25T07:41:54.250Z,4.38
2023-03-25T07:45:01.067Z,3.72
2023-03-25T07:47:31.005Z,3.72
2023-03-25T07:49:59.161Z,3.80
2023-03-25T07:52:27.276Z,4.65
2023-03-25T07:54:55.393Z,4.15
2023-03-25T07:57:23.650Z,5.18
2023-03-25T07:59:51.801Z,4.80
2023-03-25T08:02:20.046Z,5.32
2023-03-25T08:04:48.185Z,5.30
2023-03-25T08:07:16.691Z,4.90
2023-03-25T08:09:44.767Z,4.75
2023-03-25T08:12:12.901Z,4.80
2023-03-25T08:14:41.691Z,4.95
2023-03-25T08:17:09.779Z,4.75
2023-03-25T08:19:38.097Z,4.38
2023-03-25T08:22:06.235Z,4.95
2023-03-25T08:24:34.354Z,4.78
2023-03-25T08:27:15.450Z,4.57
2023-03-25T08:29:47.227Z,4.32
2023-03-25T08:32:15.412Z,4.63
2023-03-25T08:34:43.537Z,5.55
2023-03-25T08:37:11.654Z,4.93
2023-03-25T08:39:42.072Z,4.22
2023-03-25T08:42:10.768Z,5.07
2023-03-25T08:44:39.486Z,4.82
2023-03-25T08:47:09.037Z,5.47
2023-03-25T08:49:37.235Z,5.22
2023-03-25T08:52:08.635Z,5.72
2023-03-25T08:54:36.977Z,6.20
2023-03-25T08:57:06.018Z,5.90
2023-03-25T08:59:34.401Z,6.00
2023-03-25T09:02:03.659Z,7.38
2023-03-25T09:04:31.886Z,5.63
2023-03-25T09:07:11.221Z,5.63
2023-03-25T09:09:41.288Z,6.55
2023-03-25T09:12:09.580Z,5.85
2023-03-25T09:14:37.895Z,5.97
2023-03-25T09:17:10.245Z,6.72
2023-03-25T09:19:38.496Z,7.15
2023-03-25T09:22:07.708Z,5.88
2023-03-25T09:24:35.943Z,5.35
2023-03-25T09:27:04.748Z,6.05
2023-03-25T09:29:32.890Z,5.90
2023-03-25T09:32:02.657Z,5.63
2023-03-25T09:34:31.088Z,6.28
2023-03-25T09:36:59.485Z,5.43
2023-03-25T09:39:27.717Z,5.47
2023-03-25T09:42:22.140Z,5.97
2023-03-25T09:45:12.260Z,5.25
2023-03-25T09:47:52.597Z,6.57
2023-03-25T09:50:22.225Z,7.30
2023-03-25T09:52:50.460Z,5.63
2023-03-25T09:55:25.524Z,5.95
2023-03-25T09:58:23.509Z,6.97
2023-03-25T10:01:19.299Z,6.97
2023-03-25T10:03:50.494Z,7.13
2023-03-25T10:06:26.256Z,6.40
2023-03-25T10:09:10.237Z,6.32
2023-03-25T10:11:51.150Z,7.22
2023-03-25T10:14:33.235Z,7.07
2023-03-25T10:17:06.926Z,6.18
2023-03-25T10:19:54.405Z,6.85
2023-03-25T10:22:22.557Z,7.15
2023-03-25T10:24:59.817Z,6.38
2023-03-25T10:27:37.473Z,6.38
2023-03-25T10:30:27.521Z,7.43
2023-03-25T10:32:58.728Z,7.10
2023-03-25T10:35:33.898Z,5.95
2023-03-25T10:38:26.251Z,6.35
2023-03-25T10:41:25.096Z,6.72
2023-03-25T10:43:53.648Z,6.15
2023-03-25T10:46:30.605Z,6.50
2023-03-25T10:48:58.922Z,7.75
2023-03-25T10:51:33.574Z,6.80
2023-03-25T10:54:02.431Z,6.88
2023-03-25T10:56:34.636Z,5.85
2023-03-25T10:59:29.834Z,6.00
2023-03-25T11:01:59.605Z,5.93
2023-03-25T11:04:38.001Z,6.32
2023-03-25T11:07:20.034Z,6.00
2023-03-25T11:09:48.245Z,6.57
2023-03-25T11:12:25.152Z,5.68
2023-03-25T11:15:01.808Z,5.47
2023-03-25T11:17:30.197Z,5.30
2023-03-25T11:20:10.990Z,5.90
2023-03-25T11:22:44.919Z,5.20
2023-03-25T11:25:34.433Z,4.65
2023-03-25T11:28:38.417Z,3.42
2023-03-25T11:31:16.187Z,4.53
2023-03-25T11:33:46.846Z,3.92
2023-03-25T11:36:22.989Z,3.45
2023-03-25T11:38:59.554Z,3.92
2023-03-25T11:41:36.793Z,3.80
2023-03-25T11:44:06.977Z,3.15
2023-03-25T11:46:41.476Z,3.13
2023-03-25T11:49:12.276Z,2.42
2023-03-25T11:51:40.684Z,2.28
2023-03-25T11:54:16.289Z,2.17
2023-03-25T11:56:49.054Z,1.95
2023-03-25T11:59:28.179Z,1.23
2023-03-25T12:02:27.300Z,1.92
2023-03-25T12:05:12.865Z,1.90
2023-03-25T12:07:51.777Z,1.80
2023-03-25T12:10:48.965Z,2.40
2023-03-25T12:13:40.103Z,2.00
2023-03-25T12:16:26.030Z,1.48
2023-03-25T12:19:22.304Z,1.70
2023-03-25T12:22:17.263Z,2.08
2023-03-25T12:25:09.712Z,1.75
2023-03-25T12:27:59.281Z,1.52
2023-03-25T12:30:53.940Z,1.30
2023-03-25T12:33:53.279Z,1.20
2023-03-25T12:36:29.656Z,0.93
2023-03-25T12:39:39.572Z,1.05
2023-03-25T12:42:22.815Z,1.25
2023-03-25T12:45:24.578Z,1.30
2023-03-25T12:48:04.078Z,0.98
2023-03-25T12:50:38.448Z,1.48
2023-03-25T12:53:09.322Z,1.33
2023-03-25T12:55:37.424Z,1.30
2023-03-25T12:58:41.758Z,1.20
2023-03-25T13:01:35.254Z,1.27
2023-03-25T13:04:09.470Z,1.83
2023-03-25T13:06:53.399Z,1.23
2023-03-25T13:10:14.936Z,1.33
2023-03-25T13:12:56.300Z,1.00
2023-03-25T13:15:28.272Z,1.08
2023-03-25T13:18:19.716Z,1.00
2023-03-25T13:21:13.862Z,1.17
2023-03-25T13:23:46.880Z,1.30
2023-03-25T13:26:29.377Z,1.57
2023-03-25T13:29:01.804Z,1.02
2023-03-25T13:31:43.538Z,1.53
2023-03-25T13:34:35.324Z,1.98
2023-03-25T13:37:24.576Z,1.60
2023-03-25T13:40:15.350Z,2.00
2023-03-25T13:43:13.528Z,2.00
2023-03-25T13:46:07.990Z,1.45
2023-03-25T13:48:42.989Z,1.80
2023-03-25T13:51:11.497Z,1.40
2023-03-25T13:54:07.045Z,1.50
2023-03-25T13:57:00.015Z,1.10
2023-03-25T13:59:46.897Z,1.42
2023-03-25T14:02:52.746Z,1.10
2023-03-25T14:05:52.603Z,1.40
2023-03-25T14:08:51.854Z,1.08
2023-03-25T14:12:08.308Z,1.40
2023-03-25T14:14:41.939Z,1.00
2023-03-25T14:17:11.959Z,1.00
2023-03-25T14:19:44.706Z,1.35
2023-03-25T14:22:23.398Z,1.15
2023-03-25T14:24:53.585Z,1.00
2023-03-25T14:27:34.150Z,1.23
2023-03-25T14:30:26.950Z,1.52
2023-03-25T14:32:56.649Z,1.42
2023-03-25T14:35:34.058Z,1.27
2023-03-25T14:38:08.662Z,2.05
2023-03-25T14:40:50.854Z,2.10
2023-03-25T14:43:33.071Z,2.10
2023-03-25T14:46:10.522Z,2.38
2023-03-25T14:48:46.874Z,1.88
2023-03-25T14:51:30.013Z,2.00
2023-03-25T14:54:12.325Z,1.58
2023-03-25T14:56:54.031Z,1.50
2023-03-25T14:59:32.272Z,1.52
2023-03-25T15:02:14.169Z,1.63
2023-03-25T15:04:43.204Z,1.63
2023-03-25T15:07:19.991Z,1.00
2023-03-25T15:09:52.680Z,1.60
2023-03-25T15:12:25.305Z,1.75
2023-03-25T15:15:03.165Z,1.50
2023-03-25T15:17:49.218Z,0.82
2023-03-25T15:20:23.501Z,1.20
2023-03-25T15:23:19.231Z,1.05
2023-03-25T15:25:52.928Z,1.02
2023-03-25T15:28:39.792Z,0.95
2023-03-25T15:31:21.040Z,0.95
2023-03-25T15:34:26.170Z,1.40
2023-03-25T15:37:14.206Z,1.27
2023-03-25T15:40:06.675Z,1.30
2023-03-25T15:43:16.354Z,1.05
2023-03-25T15:46:04.639Z,1.10
2023-03-25T15:48:41.980Z,0.90
2023-03-25T15:51:39.876Z,0.95
2023-03-25T15:54:46.152Z,1.02
2023-03-25T15:57:24.287Z,0.82
2023-03-25T16:00:20.740Z,1.10
2023-03-25T16:03:12.151Z,1.05
2023-03-25T16:05:47.315Z,0.90
2023-03-25T16:08:27.162Z,1.00
2023-03-25T16:10:57.340Z,1.20
2023-03-25T16:13:25.581Z,0.90
2023-03-25T16:15:57.654Z,1.10
2023-03-25T16:18:26.346Z,1.20
2023-03-25T16:21:01.007Z,0.93
2023-03-25T16:23:31.153Z,1.02
2023-03-25T16:25:59.268Z,1.10
2023-03-25T16:28:33.353Z,0.88
2023-03-25T16:31:03.088Z,0.93
2023-03-25T16:33:37.526Z,1.10
2023-03-25T16:36:09.877Z,1.30
2023-03-25T16:38:38.028Z,1.90
2023-03-25T16:41:13.524Z,1.00
2023-03-25T16:43:42.121Z,1.20
2023-03-25T16:46:13.548Z,1.17
2023-03-25T16:48:47.751Z,0.90
2023-03-25T16:51:28.922Z,1.00
2023-03-25T16:53:59.581Z,0.77
2023-03-25T16:56:37.606Z,0.80
2023-03-25T16:59:16.150Z,0.70
2023-03-25T17:02:01.476Z,1.83
2023-03-25T17:04:42.034Z,3.40
2023-03-25T17:07:20.914Z,2.47
2023-03-25T17:09:54.127Z,1.83
2023-03-25T17:12:24.269Z,1.38
2023-03-25T17:14:59.654Z,2.42
2023-03-25T17:17:51.300Z,4.10
2023-03-25T17:20:26.437Z,4.68
2023-03-25T17:23:04.482Z,4.72
2023-03-25T17:25:56.701Z,3.13
2023-03-25T17:28:32.626Z,2.92
2023-03-25T17:31:17.008Z,2.60
2023-03-25T17:33:53.657Z,2.25
2023-03-25T17:36:22.014Z,1.63
2023-03-25T17:38:54.054Z,1.80
2023-03-25T17:41:27.180Z,1.98
2023-03-25T17:43:56.755Z,2.35
2023-03-25T17:46:30.620Z,1.75
2023-03-25T17:48:59.623Z,1.88
2023-03-25T17:51:30.543Z,1.92
2023-03-25T17:53:58.707Z,2.25
2023-03-25T17:56:28.417Z,1.90
2023-03-25T17:59:05.584Z,1.80
2023-03-25T18:01:35.344Z,1.25
2023-03-25T18:04:05.355Z,1.80
2023-03-25T18:06:33.442Z,1.77
2023-03-25T18:09:02.208Z,2.30
2023-03-25T18:11:30.848Z,1.60
2023-03-25T18:13:58.954Z,1.15
2023-03-25T18:16:27.180Z,1.17
2023-03-25T18:18:55.367Z,1.13
2023-03-25T18:21:23.758Z,1.38
2023-03-25T18:23:52.366Z,1.42
2023-03-25T18:26:21.045Z,1.90
2023-03-25T18:28:49.425Z,1.45
2023-03-25T18:31:18.369Z,1.65
2023-03-25T18:33:48.438Z,1.75
2023-03-25T18:36:18.369Z,1.98
2023-03-25T18:38:47.793Z,2.40
2023-03-25T18:41:17.403Z,2.47
2023-03-25T18:43:45.629Z,2.70
2023-03-25T18:46:15.538Z,3.10
2023-03-25T18:48:44.146Z,2.88
2023-03-25T18:51:13.677Z,2.50
2023-03-25T18:53:41.937Z,2.88
2023-03-25T18:56:10.413Z,2.80
2023-03-25T18:58:38.530Z,2.83
2023-03-25T19:01:10.082Z,2.72
2023-03-25T19:03:41.117Z,3.20
2023-03-25T19:06:11.779Z,4.32
2023-03-25T19:08:41.147Z,8.32
2023-03-25T19:11:19.826Z,10.32
2023-03-25T19:13:51.106Z,9.45
2023-03-25T19:16:19.825Z,9.75
2023-03-25T19:18:48.576Z,9.80
2023-03-25T19:21:20.635Z,12.25
2023-03-25T19:23:48.865Z,12.32
2023-03-25T19:26:16.972Z,11.00
2023-03-25T19:28:47.768Z,10.82
2023-03-25T19:31:16.571Z,10.15
2023-03-25T19:33:44.853Z,10.73
2023-03-25T19:36:18.995Z,10.95
2023-03-25T19:38:47.352Z,10.27
2023-03-25T19:41:16.592Z,10.95
2023-03-25T19:43:45.269Z,8.45
2023-03-25T19:46:13.542Z,7.07
2023-03-25T19:48:41.711Z,7.10
2023-03-25T19:51:09.837Z,6.30
2023-03-25T19:53:37.959Z,5.18
2023-03-25T19:56:06.757Z,3.50
2023-03-25T19:58:35.124Z,3.85
2023-03-25T20:01:03.719Z,2.25
2023-03-25T20:03:32.811Z,2.75
2023-03-25T20:06:02.915Z,2.55
2023-03-25T20:08:31.981Z,2.85
2023-03-25T20:11:01.090Z,3.05
2023-03-25T20:13:29.478Z,2.78
2023-03-25T20:15:57.628Z,2.88
2023-03-25T20:18:25.759Z,2.78
2023-03-25T20:20:53.958Z,3.63
2023-03-25T20:23:22.091Z,3.08
2023-03-25T20:25:51.497Z,4.07
2023-03-25T20:28:19.811Z,13.02
2023-03-25T20:30:47.947Z,15.48
2023-03-25T20:33:16.091Z,16.92
2023-03-25T20:35:44.478Z,16.90
2023-03-25T20:38:14.291Z,15.65
2023-03-25T20:40:45.114Z,16.80
2023-03-25T20:43:14.502Z,15.32
2023-03-25T20:45:43.795Z,15.63
2023-03-25T20:48:12.166Z,14.77
2023-03-25T20:50:42.595Z,15.18
2023-03-25T20:53:10.651Z,16.70
2023-03-25T20:55:38.892Z,14.38
2023-03-25T20:58:08.810Z,15.98
2023-03-25T21:00:37.463Z,16.25
2023-03-25T21:03:05.716Z,16.05
2023-03-25T21:05:34.023Z,16.50
2023-03-25T21:08:02.151Z,17.10
2023-03-25T21:10:33.188Z,13.82
2023-03-25T21:13:01.311Z,12.32
2023-03-25T21:15:31.099Z,12.90
2023-03-25T21:17:59.581Z,13.80
2023-03-25T21:20:28.868Z,13.15
2023-03-25T21:22:59.154Z,14.45
2023-03-25T21:25:34.228Z,13.63
2023-03-25T21:28:04.237Z,12.95
2023-03-25T21:30:32.794Z,13.15
2023-03-25T21:33:01.279Z,13.68
2023-03-25T21:35:29.539Z,12.85
2023-03-25T21:38:00.932Z,13.27
2023-03-25T21:40:39.801Z,12.50
2023-03-25T21:43:11.318Z,14.02
2023-03-25T21:45:40.793Z,15.13
2023-03-25T21:48:08.973Z,13.35
2023-03-25T21:50:38.318Z,11.30
2023-03-25T21:53:08.260Z,9.73
2023-03-25T21:55:38.432Z,9.40
2023-03-25T21:58:06.933Z,8.52
2023-03-25T22:00:35.105Z,7.90
2023-03-25T22:03:06.450Z,8.75
2023-03-25T22:05:34.714Z,9.68
2023-03-25T22:08:02.845Z,9.77
2023-03-25T22:10:31.001Z,10.13
2023-03-25T22:12:59.420Z,9.52
2023-03-25T22:15:27.646Z,9.27
2023-03-25T22:17:55.948Z,8.70
2023-03-25T22:20:24.068Z,8.38
2023-03-25T22:22:53.785Z,8.20
2023-03-25T22:25:22.007Z,8.40
2023-03-25T22:27:50.416Z,6.60
2023-03-25T22:30:20.411Z,7.30
2023-03-25T22:32:48.694Z,7.30
2023-03-25T22:35:17.363Z,8.52
2023-03-25T22:37:45.715Z,8.65
2023-03-25T22:40:14.255Z,8.90
2023-03-25T22:42:42.333Z,8.45
2023-03-25T22:45:11.066Z,9.05
2023-03-25T22:47:39.208Z,9.50
2023-03-25T22:50:09.088Z,7.63
2023-03-25T22:52:39.677Z,7.47
2023-03-25T22:55:09.125Z,6.00
2023-03-25T22:57:37.338Z,5.75
2023-03-25T23:00:14.460Z,6.28
2023-03-25T23:02:42.795Z,6.05
2023-03-25T23:05:11.269Z,5.55
2023-03-25T23:07:39.378Z,5.22
2023-03-25T23:10:08.934Z,5.80
2023-03-25T23:12:36.980Z,5.13
2023-03-25T23:15:05.510Z,6.95
2023-03-25T23:17:35.265Z,6.05
2023-03-25T23:20:07.157Z,7.03
2023-03-25T23:22:35.573Z,8.50
2023-03-25T23:25:05.061Z,9.50
2023-03-25T23:27:35.539Z,9.02
2023-03-25T23:30:06.456Z,8.60
2023-03-25T23:32:36.073Z,8.40
2023-03-25T23:35:04.493Z,7.80
2023-03-25T23:37:34.078Z,6.55
2023-03-25T23:40:02.306Z,6.70
2023-03-25T23:42:35.030Z,7.25
2023-03-25T23:45:04.671Z,6.72
2023-03-25T23:47:32.927Z,6.68
2023-03-25T23:50:01.976Z,6.43
2023-03-25T23:52:30.922Z,7.28
2023-03-25T23:54:59.034Z,9.35
2023-03-25T23:57:27.153Z,10.90
2023-03-25T23:59:55.250Z,11.68
